Time;durP1;ratioP1;P1;durP2;ratioP2;P2;SDS_P1;SDS_P2;PMS_P1;PMS_P2;Temp;Humidity;BMP_temperature;BMP_pressure;BME280_temperature;BME280_humidity;BME280_pressure;Samples;Min_cycle;Max_cycle;Signal;HPM_P1;HPM_P2
2023/05/30 00:01:06;;;;;;;10.23;2.35;;;;;;;;;;5096351;28;20314;-83
2023/05/30 00:03:35;;;;;;;4.60;2.60;;;;;;;;;;5086628;28;20220;-82
2023/05/30 00:06:05;;;;;;;9.00;2.53;;;;;;;;;;5074486;28;20197;-83
2023/05/30 00:08:33;;;;;;;3.97;2.55;;;;;;;;;;5075439;28;20800;-83
2023/05/30 00:11:00;;;;;;;4.80;1.85;;;;;;;;;;5075366;28;20284;-82
2023/05/30 00:13:29;;;;;;;5.85;2.63;;;;;;;;;;5074437;28;20217;-82
2023/05/30 00:15:57;;;;;;;4.13;2.22;;;;;;;;;;5075557;28;20200;-81
2023/05/30 00:18:25;;;;;;;4.82;2.30;;;;;;;;;;5066817;28;20252;-83
2023/05/30 00:20:53;;;;;;;3.38;2.60;;;;;;;;;;5074321;28;20244;-84
2023/05/30 00:23:22;;;;;;;5.45;2.20;;;;;;;;;;5074568;28;20223;-82
2023/05/30 00:25:49;;;;;;;3.53;2.00;;;;;;;;;;5074781;28;20193;-83
2023/05/30 00:28:17;;;;;;;7.55;2.45;;;;;;;;;;5070371;28;20288;-82
2023/05/30 00:30:44;;;;;;;5.40;3.80;;;;;;;;;;5066557;28;20289;-85
2023/05/30 00:33:12;;;;;;;3.47;2.33;;;;;;;;;;5074845;28;20227;-82
2023/05/30 00:35:40;;;;;;;5.18;2.28;;;;;;;;;;5074658;28;20228;-83
2023/05/30 00:38:08;;;;;;;3.95;2.10;;;;;;;;;;5073881;28;20205;-84
2023/05/30 00:40:36;;;;;;;5.90;2.80;;;;;;;;;;5072300;28;20308;-83
2023/05/30 00:43:04;;;;;;;4.90;1.80;;;;;;;;;;5076328;28;20267;-82
2023/05/30 00:45:31;;;;;;;5.85;2.33;;;;;;;;;;5073804;28;20628;-84
2023/05/30 00:48:00;;;;;;;10.02;4.03;;;;;;;;;;5073558;28;20288;-81
2023/05/30 00:50:28;;;;;;;8.20;2.42;;;;;;;;;;5073930;28;20199;-81
2023/05/30 00:52:57;;;;;;;7.95;2.75;;;;;;;;;;5080270;28;20310;-83
2023/05/30 00:55:25;;;;;;;6.55;2.50;;;;;;;;;;5087792;28;20199;-83
2023/05/30 00:57:55;;;;;;;6.70;2.60;;;;;;;;;;5073797;28;20201;-82
2023/05/30 01:00:24;;;;;;;5.97;3.10;;;;;;;;;;5073872;28;20205;-82
2023/05/30 01:02:51;;;;;;;9.60;2.10;;;;;;;;;;5073257;28;20299;-83
2023/05/30 01:05:24;;;;;;;5.50;2.10;;;;;;;;;;5074192;28;20722;-82
2023/05/30 01:07:52;;;;;;;4.90;2.15;;;;;;;;;;5073998;28;20204;-82
2023/05/30 01:10:20;;;;;;;5.63;2.20;;;;;;;;;;5073929;28;20239;-82
2023/05/30 01:13:00;;;;;;;7.43;2.80;;;;;;;;;;5074482;28;20209;-82
2023/05/30 01:15:30;;;;;;;6.25;2.05;;;;;;;;;;5074930;28;20204;-82
2023/05/30 01:18:04;;;;;;;6.28;2.00;;;;;;;;;;5069256;28;20709;-81
2023/05/30 01:20:36;;;;;;;4.75;2.05;;;;;;;;;;5079178;28;20299;-82
2023/05/30 01:23:30;;;;;;;4.07;2.10;;;;;;;;;;5069651;28;20247;-82
2023/05/30 01:26:24;;;;;;;3.38;2.03;;;;;;;;;;5054538;28;20197;-81
2023/05/30 01:28:54;;;;;;;2.67;1.70;;;;;;;;;;5055608;28;20244;-82
2023/05/30 01:31:23;;;;;;;6.28;2.17;;;;;;;;;;5076045;28;20676;-82
2023/05/30 01:33:51;;;;;;;6.22;2.50;;;;;;;;;;5074109;28;20223;-83
2023/05/30 01:36:19;;;;;;;8.50;2.40;;;;;;;;;;5073826;28;20732;-82
2023/05/30 01:38:46;;;;;;;4.63;1.80;;;;;;;;;;5074198;28;20211;-82
2023/05/30 01:41:18;;;;;;;7.75;2.30;;;;;;;;;;5058607;28;20738;-81
2023/05/30 01:43:56;;;;;;;7.00;2.92;;;;;;;;;;5072358;28;20217;-82
2023/05/30 01:46:30;;;;;;;3.83;2.15;;;;;;;;;;5073137;28;20197;-82
2023/05/30 01:49:05;;;;;;;3.72;1.80;;;;;;;;;;5073656;28;20210;-82
2023/05/30 01:51:42;;;;;;;5.07;2.88;;;;;;;;;;5074066;28;20211;-82
2023/05/30 01:54:10;;;;;;;3.85;2.03;;;;;;;;;;5074653;28;20274;-82
2023/05/30 01:56:38;;;;;;;4.85;2.00;;;;;;;;;;5073289;28;20716;-81
2023/05/30 01:59:09;;;;;;;4.82;2.40;;;;;;;;;;5080723;22;20248;-78
2023/05/30 02:01:37;;;;;;;2.72;1.70;;;;;;;;;;5051940;28;20226;-78
2023/05/30 02:04:05;;;;;;;7.57;2.42;;;;;;;;;;5056421;28;20201;-78
2023/05/30 02:06:33;;;;;;;4.03;1.85;;;;;;;;;;5052206;28;20747;-78
2023/05/30 02:09:00;;;;;;;2.92;1.92;;;;;;;;;;5052089;28;20201;-78
2023/05/30 02:11:28;;;;;;;4.63;1.88;;;;;;;;;;5052775;28;20278;-78
2023/05/30 02:13:55;;;;;;;3.15;2.53;;;;;;;;;;5049252;28;20200;-79
2023/05/30 02:16:24;;;;;;;4.57;1.92;;;;;;;;;;5051807;28;20222;-78
2023/05/30 02:18:52;;;;;;;4.22;1.77;;;;;;;;;;5052461;28;20597;-79
2023/05/30 02:21:20;;;;;;;7.95;2.40;;;;;;;;;;5052060;28;20251;-79
2023/05/30 02:23:48;;;;;;;4.82;2.20;;;;;;;;;;5051191;28;20665;-78
2023/05/30 02:26:15;;;;;;;3.92;1.98;;;;;;;;;;5055054;28;20213;-79
2023/05/30 02:28:43;;;;;;;2.97;1.83;;;;;;;;;;5055288;28;20208;-78
2023/05/30 02:31:10;;;;;;;6.15;3.67;;;;;;;;;;5055993;28;20219;-78
2023/05/30 02:33:39;;;;;;;2.55;1.92;;;;;;;;;;5057777;28;20200;-78
2023/05/30 02:36:08;;;;;;;5.70;1.98;;;;;;;;;;5054277;28;20839;-78
2023/05/30 02:38:35;;;;;;;4.07;2.00;;;;;;;;;;5055490;28;20297;-79
2023/05/30 02:41:03;;;;;;;7.47;2.72;;;;;;;;;;5057254;28;20201;-79
2023/05/30 02:43:30;;;;;;;5.15;2.30;;;;;;;;;;5054652;28;20218;-79
2023/05/30 02:45:58;;;;;;;7.68;2.03;;;;;;;;;;5055346;28;20218;-79
2023/05/30 02:48:25;;;;;;;3.65;2.20;;;;;;;;;;5055895;28;20300;-78
2023/05/30 02:50:54;;;;;;;7.20;2.33;;;;;;;;;;5057512;28;20696;-78
2023/05/30 02:53:22;;;;;;;3.78;2.03;;;;;;;;;;5056057;28;20255;-79
2023/05/30 02:55:50;;;;;;;5.75;2.53;;;;;;;;;;5056187;28;20221;-79
2023/05/30 02:58:17;;;;;;;5.10;2.97;;;;;;;;;;5053338;28;20237;-79
2023/05/30 03:00:45;;;;;;;2.50;1.90;;;;;;;;;;5055766;28;20194;-78
2023/05/30 03:03:14;;;;;;;6.07;2.35;;;;;;;;;;5056380;28;20214;-78
2023/05/30 03:05:42;;;;;;;5.15;2.40;;;;;;;;;;5055991;28;20225;-78
2023/05/30 03:08:11;;;;;;;4.15;2.00;;;;;;;;;;5055584;28;20560;-79
2023/05/30 03:10:38;;;;;;;6.18;2.75;;;;;;;;;;5055182;28;20204;-79
2023/05/30 03:13:05;;;;;;;6.68;2.20;;;;;;;;;;5054241;28;20678;-78
2023/05/30 03:15:33;;;;;;;5.57;1.70;;;;;;;;;;5055429;28;20317;-78
2023/05/30 03:18:00;;;;;;;6.00;2.80;;;;;;;;;;5054167;28;21233;-79
2023/05/30 03:20:28;;;;;;;8.27;2.35;;;;;;;;;;5054416;28;20194;-79
2023/05/30 03:22:55;;;;;;;6.10;2.67;;;;;;;;;;5055298;28;20232;-78
2023/05/30 03:25:24;;;;;;;7.20;2.42;;;;;;;;;;5054707;28;20312;-79
2023/05/30 03:27:52;;;;;;;4.20;2.10;;;;;;;;;;5055868;28;20259;-78
2023/05/30 03:30:22;;;;;;;3.75;2.05;;;;;;;;;;5054153;28;20269;-79
2023/05/30 03:32:49;;;;;;;7.70;2.50;;;;;;;;;;5055160;28;20217;-78
2023/05/30 03:35:17;;;;;;;6.63;2.13;;;;;;;;;;5054963;28;20228;-79
2023/05/30 03:37:45;;;;;;;7.45;2.65;;;;;;;;;;5054513;28;20305;-79
2023/05/30 03:40:13;;;;;;;7.20;2.30;;;;;;;;;;5054182;28;20197;-79
2023/05/30 03:42:42;;;;;;;11.98;3.58;;;;;;;;;;5055498;28;20301;-79
2023/05/30 03:45:10;;;;;;;9.00;3.88;;;;;;;;;;5050450;28;20226;-78
2023/05/30 03:47:38;;;;;;;5.35;2.30;;;;;;;;;;5048470;28;20204;-79
2023/05/30 03:50:06;;;;;;;6.95;2.05;;;;;;;;;;5056325;28;20573;-79
2023/05/30 03:52:34;;;;;;;4.32;2.22;;;;;;;;;;5054626;28;20285;-78
2023/05/30 03:55:01;;;;;;;3.72;1.80;;;;;;;;;;5055003;28;20223;-78
2023/05/30 03:57:29;;;;;;;5.38;2.33;;;;;;;;;;5054931;28;20832;-79
2023/05/30 03:59:57;;;;;;;9.38;2.97;;;;;;;;;;5052883;28;20215;-78
2023/05/30 04:02:25;;;;;;;6.30;2.33;;;;;;;;;;5050994;28;20209;-79
2023/05/30 04:04:53;;;;;;;4.53;2.25;;;;;;;;;;5053048;28;20285;-79
2023/05/30 04:07:20;;;;;;;4.43;2.45;;;;;;;;;;5053452;28;20251;-78
2023/05/30 04:09:48;;;;;;;9.68;3.45;;;;;;;;;;5047441;28;20225;-78
2023/05/30 04:12:15;;;;;;;6.15;2.67;;;;;;;;;;5053912;28;20635;-79
2023/05/30 04:14:43;;;;;;;6.43;2.53;;;;;;;;;;5053123;28;20280;-79
2023/05/30 04:17:11;;;;;;;5.10;2.80;;;;;;;;;;5052834;28;20208;-79
2023/05/30 04:19:39;;;;;;;12.38;2.70;;;;;;;;;;5053909;28;20302;-79
2023/05/30 04:22:08;;;;;;;8.10;2.83;;;;;;;;;;5054525;28;20288;-79
2023/05/30 04:24:35;;;;;;;7.55;2.47;;;;;;;;;;5054285;28;20225;-78
2023/05/30 04:27:03;;;;;;;5.25;2.40;;;;;;;;;;5052591;28;20679;-79
2023/05/30 04:29:30;;;;;;;5.65;2.72;;;;;;;;;;5051345;28;20280;-79
2023/05/30 04:31:58;;;;;;;7.97;2.47;;;;;;;;;;5053191;28;20211;-78
2023/05/30 04:34:26;;;;;;;4.38;2.13;;;;;;;;;;5055793;28;20679;-79
2023/05/30 04:36:56;;;;;;;6.28;2.22;;;;;;;;;;5051916;28;20284;-78
2023/05/30 04:39:23;;;;;;;5.93;2.80;;;;;;;;;;5053588;28;20216;-78
2023/05/30 04:41:54;;;;;;;6.15;2.83;;;;;;;;;;5053271;28;20654;-78
2023/05/30 04:44:22;;;;;;;4.03;2.70;;;;;;;;;;5054196;28;20244;-78
2023/05/30 04:46:49;;;;;;;9.38;2.78;;;;;;;;;;5051675;28;20249;-78
2023/05/30 04:49:17;;;;;;;5.50;2.72;;;;;;;;;;5054590;28;20288;-78
2023/05/30 04:51:46;;;;;;;5.93;2.20;;;;;;;;;;5054944;28;20198;-78
2023/05/30 04:54:14;;;;;;;9.05;2.83;;;;;;;;;;5055296;28;20697;-79
2023/05/30 04:56:41;;;;;;;7.88;2.92;;;;;;;;;;5055112;28;20283;-79
2023/05/30 04:59:09;;;;;;;6.68;2.78;;;;;;;;;;5052668;28;20605;-80
2023/05/30 05:01:36;;;;;;;5.18;2.90;;;;;;;;;;5050268;28;20879;-79
2023/05/30 05:04:04;;;;;;;9.13;2.95;;;;;;;;;;5053512;28;20217;-78
2023/05/30 05:06:31;;;;;;;7.05;2.90;;;;;;;;;;5054191;28;20256;-79
2023/05/30 05:09:00;;;;;;;5.05;2.33;;;;;;;;;;5053993;28;20292;-78
2023/05/30 05:11:27;;;;;;;7.30;2.80;;;;;;;;;;5048572;28;20194;-76
2023/05/30 05:13:55;;;;;;;6.72;3.30;;;;;;;;;;5050274;28;20723;-76
2023/05/30 05:16:22;;;;;;;7.63;3.10;;;;;;;;;;5049210;28;20213;-76
2023/05/30 05:18:50;;;;;;;5.10;3.17;;;;;;;;;;5051527;28;20227;-76
2023/05/30 05:21:17;;;;;;;7.82;3.20;;;;;;;;;;5050951;28;20193;-77
2023/05/30 05:23:45;;;;;;;7.93;3.83;;;;;;;;;;5051627;28;20693;-77
2023/05/30 05:26:13;;;;;;;7.53;3.72;;;;;;;;;;5050583;28;20275;-76
2023/05/30 05:28:41;;;;;;;7.68;3.30;;;;;;;;;;5051847;28;20637;-77
2023/05/30 05:31:08;;;;;;;6.45;3.72;;;;;;;;;;5047558;28;20202;-76
2023/05/30 05:33:36;;;;;;;8.45;3.42;;;;;;;;;;5050407;28;20197;-76
2023/05/30 05:36:03;;;;;;;14.82;5.95;;;;;;;;;;5050727;28;20223;-76
2023/05/30 05:38:31;;;;;;;6.95;3.85;;;;;;;;;;5050619;28;20204;-76
2023/05/30 05:40:58;;;;;;;7.82;3.60;;;;;;;;;;5048901;28;20202;-76
2023/05/30 05:43:27;;;;;;;7.20;4.38;;;;;;;;;;5048714;28;20197;-77
2023/05/30 05:45:55;;;;;;;8.93;3.75;;;;;;;;;;5048083;28;20221;-76
2023/05/30 05:48:22;;;;;;;7.43;3.92;;;;;;;;;;5050201;28;20198;-77
2023/05/30 05:50:50;;;;;;;11.85;4.47;;;;;;;;;;5050926;28;20208;-78
2023/05/30 05:53:17;;;;;;;7.43;4.40;;;;;;;;;;5048707;28;20198;-78
2023/05/30 05:55:45;;;;;;;9.90;4.10;;;;;;;;;;5051109;28;20240;-78
2023/05/30 05:58:13;;;;;;;10.57;4.15;;;;;;;;;;5051711;28;20229;-78
2023/05/30 06:00:42;;;;;;;11.40;5.07;;;;;;;;;;5053066;28;20208;-78
2023/05/30 06:03:09;;;;;;;11.02;5.13;;;;;;;;;;5056190;28;20199;-78
2023/05/30 06:05:36;;;;;;;13.52;5.50;;;;;;;;;;5083318;22;20236;-79
2023/05/30 06:08:04;;;;;;;9.27;5.22;;;;;;;;;;5073954;28;20201;-78
2023/05/30 06:10:31;;;;;;;13.30;5.47;;;;;;;;;;5075213;28;20653;-79
2023/05/30 06:12:59;;;;;;;8.55;4.63;;;;;;;;;;5076584;28;20288;-80
2023/05/30 06:15:26;;;;;;;8.32;5.03;;;;;;;;;;5074109;28;20217;-79
2023/05/30 06:17:55;;;;;;;8.38;4.20;;;;;;;;;;5076343;28;20200;-81
2023/05/30 06:20:22;;;;;;;8.30;4.10;;;;;;;;;;5077470;28;20280;-80
2023/05/30 06:22:50;;;;;;;10.38;5.45;;;;;;;;;;5074360;28;20276;-81
2023/05/30 06:25:17;;;;;;;13.02;4.50;;;;;;;;;;5073355;28;20690;-79
2023/05/30 06:27:45;;;;;;;6.68;4.07;;;;;;;;;;5083576;28;20570;-80
2023/05/30 06:30:13;;;;;;;8.98;4.38;;;;;;;;;;5074602;28;20292;-82
2023/05/30 06:32:43;;;;;;;5.75;4.55;;;;;;;;;;5077751;28;20207;-81
2023/05/30 06:35:17;;;;;;;9.70;3.80;;;;;;;;;;5086595;28;20216;-81
2023/05/30 06:37:45;;;;;;;12.23;5.95;;;;;;;;;;5077430;28;20193;-82
2023/05/30 06:40:13;;;;;;;10.93;4.43;;;;;;;;;;5086441;28;20200;-82
2023/05/30 06:42:40;;;;;;;10.02;4.90;;;;;;;;;;5078071;28;20312;-80
2023/05/30 06:45:09;;;;;;;8.10;4.68;;;;;;;;;;5071815;28;20228;-80
2023/05/30 06:47:37;;;;;;;8.68;4.32;;;;;;;;;;5074450;28;20292;-80
2023/05/30 06:50:05;;;;;;;9.18;4.35;;;;;;;;;;5091217;28;20229;-79
2023/05/30 06:52:34;;;;;;;13.27;5.07;;;;;;;;;;5078249;28;20193;-79
2023/05/30 06:55:01;;;;;;;13.13;4.93;;;;;;;;;;5080574;28;20202;-80
2023/05/30 06:57:29;;;;;;;6.13;4.05;;;;;;;;;;5076842;28;20209;-80
2023/05/30 06:59:56;;;;;;;8.80;4.97;;;;;;;;;;5074485;28;20193;-78
2023/05/30 07:02:24;;;;;;;8.98;4.22;;;;;;;;;;5068879;28;20200;-79
2023/05/30 07:04:51;;;;;;;7.85;4.05;;;;;;;;;;5076013;28;20227;-79
2023/05/30 07:07:18;;;;;;;13.80;4.45;;;;;;;;;;5071557;28;20193;-79
2023/05/30 07:09:47;;;;;;;6.82;4.25;;;;;;;;;;5070473;28;20197;-80
2023/05/30 07:12:15;;;;;;;9.80;6.22;;;;;;;;;;5078806;28;20199;-80
2023/05/30 07:14:43;;;;;;;9.68;4.15;;;;;;;;;;5067504;28;20223;-79
2023/05/30 07:17:10;;;;;;;7.20;4.72;;;;;;;;;;5064896;28;20885;-80
2023/05/30 07:19:37;;;;;;;7.00;4.10;;;;;;;;;;5074424;28;20204;-79
2023/05/30 07:22:06;;;;;;;8.93;4.22;;;;;;;;;;5075446;28;20206;-81
2023/05/30 07:24:33;;;;;;;12.55;4.90;;;;;;;;;;5074415;28;20228;-80
2023/05/30 07:27:02;;;;;;;8.93;4.43;;;;;;;;;;5067708;28;20221;-80
2023/05/30 07:29:30;;;;;;;9.68;4.45;;;;;;;;;;5073564;28;20601;-80
2023/05/30 07:31:57;;;;;;;8.88;5.53;;;;;;;;;;5066915;28;20203;-81
2023/05/30 07:34:24;;;;;;;7.25;4.47;;;;;;;;;;5071204;28;20561;-81
2023/05/30 07:36:52;;;;;;;7.03;4.95;;;;;;;;;;5072700;28;20225;-84
2023/05/30 07:39:20;;;;;;;4.43;3.20;;;;;;;;;;5073955;28;20284;-81
2023/05/30 07:41:47;;;;;;;10.68;3.95;;;;;;;;;;5075342;28;20196;-83
2023/05/30 07:44:16;;;;;;;7.28;3.78;;;;;;;;;;5071185;28;20201;-80
2023/05/30 07:46:43;;;;;;;6.05;4.38;;;;;;;;;;5072085;28;20574;-82
2023/05/30 07:49:11;;;;;;;12.82;4.53;;;;;;;;;;5075414;28;20192;-81
2023/05/30 07:51:38;;;;;;;11.50;4.63;;;;;;;;;;5072601;28;20724;-81
2023/05/30 07:54:06;;;;;;;9.02;4.38;;;;;;;;;;5071658;28;20284;-79
2023/05/30 07:56:34;;;;;;;7.53;4.13;;;;;;;;;;5071999;28;20294;-79
2023/05/30 07:59:01;;;;;;;7.45;4.10;;;;;;;;;;5070196;28;20193;-80
2023/05/30 08:01:31;;;;;;;8.35;4.13;;;;;;;;;;5071144;28;20201;-81
2023/05/30 08:03:58;;;;;;;6.22;4.50;;;;;;;;;;5073939;28;20552;-79
2023/05/30 08:06:26;;;;;;;8.15;4.68;;;;;;;;;;5073008;28;20229;-81
2023/05/30 08:08:53;;;;;;;9.55;4.13;;;;;;;;;;5072411;28;20233;-82
2023/05/30 08:11:21;;;;;;;10.43;3.90;;;;;;;;;;5072992;28;20211;-81
2023/05/30 08:13:49;;;;;;;9.32;5.05;;;;;;;;;;5076921;28;20206;-80
2023/05/30 08:16:17;;;;;;;6.68;4.07;;;;;;;;;;5075935;28;20231;-79
2023/05/30 08:18:47;;;;;;;7.43;3.83;;;;;;;;;;5073205;28;20235;-79
2023/05/30 08:21:14;;;;;;;8.02;4.85;;;;;;;;;;5073195;28;20200;-80
2023/05/30 08:23:42;;;;;;;6.88;4.53;;;;;;;;;;5070440;28;20201;-80
2023/05/30 08:26:09;;;;;;;9.45;4.10;;;;;;;;;;5064916;28;20221;-81
2023/05/30 08:28:37;;;;;;;7.35;4.40;;;;;;;;;;5078422;28;20303;-80
2023/05/30 08:31:05;;;;;;;6.10;4.38;;;;;;;;;;5073366;28;20207;-80
2023/05/30 08:33:34;;;;;;;8.85;5.25;;;;;;;;;;5072505;28;20659;-80
2023/05/30 08:36:03;;;;;;;7.22;5.53;;;;;;;;;;5072218;28;20646;-79
2023/05/30 08:38:31;;;;;;;8.90;4.97;;;;;;;;;;5069203;28;20196;-80
2023/05/30 08:40:58;;;;;;;8.57;4.85;;;;;;;;;;5072628;28;20201;-82
2023/05/30 08:43:26;;;;;;;9.95;4.60;;;;;;;;;;5070493;28;20208;-80
2023/05/30 08:45:55;;;;;;;6.25;4.13;;;;;;;;;;5067175;28;20687;-81
2023/05/30 08:48:26;;;;;;;10.45;5.32;;;;;;;;;;5071883;28;20228;-81
2023/05/30 08:50:54;;;;;;;12.10;5.20;;;;;;;;;;5064815;28;20210;-80
2023/05/30 08:53:28;;;;;;;10.10;5.80;;;;;;;;;;5070974;28;20204;-81
2023/05/30 08:56:02;;;;;;;11.18;6.47;;;;;;;;;;5071473;28;20209;-82
2023/05/30 08:58:35;;;;;;;7.78;4.00;;;;;;;;;;5067531;28;20202;-81
2023/05/30 09:01:02;;;;;;;5.55;4.25;;;;;;;;;;5067402;28;20204;-82
2023/05/30 09:03:31;;;;;;;8.40;4.68;;;;;;;;;;5072448;28;20194;-82
2023/05/30 09:05:59;;;;;;;7.93;4.10;;;;;;;;;;5072307;28;20662;-82
2023/05/30 09:08:28;;;;;;;10.43;5.00;;;;;;;;;;5072221;28;20197;-82
2023/05/30 09:10:56;;;;;;;7.32;4.68;;;;;;;;;;5079726;28;20204;-82
2023/05/30 09:13:23;;;;;;;7.72;4.63;;;;;;;;;;5080808;28;20275;-82
2023/05/30 09:15:51;;;;;;;7.70;3.97;;;;;;;;;;5086952;28;20479;-82
2023/05/30 09:18:19;;;;;;;6.85;3.83;;;;;;;;;;5093599;28;20211;-81
2023/05/30 09:20:47;;;;;;;9.90;4.90;;;;;;;;;;5094193;28;20554;-84
2023/05/30 09:23:14;;;;;;;12.85;4.90;;;;;;;;;;5094517;28;20302;-83
2023/05/30 09:25:45;;;;;;;10.40;5.07;;;;;;;;;;5081998;28;20239;-82
2023/05/30 09:28:13;;;;;;;9.07;4.47;;;;;;;;;;5084617;28;20192;-81
2023/05/30 09:30:57;;;;;;;11.00;5.35;;;;;;;;;;5080490;28;20289;-81
2023/05/30 09:33:25;;;;;;;7.13;4.68;;;;;;;;;;5090041;28;20283;-80
2023/05/30 09:35:53;;;;;;;7.80;4.97;;;;;;;;;;5092448;28;20258;-80
2023/05/30 09:38:23;;;;;;;15.63;6.13;;;;;;;;;;5092789;28;20668;-80
2023/05/30 09:40:56;;;;;;;8.48;5.28;;;;;;;;;;5083388;28;20197;-80
2023/05/30 09:43:34;;;;;;;8.80;4.82;;;;;;;;;;5079667;28;20193;-81
2023/05/30 09:46:04;;;;;;;4.75;4.10;;;;;;;;;;5076063;28;20244;-79
2023/05/30 09:48:33;;;;;;;7.45;4.50;;;;;;;;;;5078478;28;20204;-82
2023/05/30 09:51:01;;;;;;;7.35;4.00;;;;;;;;;;5087208;28;20214;-81
2023/05/30 09:53:30;;;;;;;11.55;5.18;;;;;;;;;;5072673;28;20588;-81
2023/05/30 09:56:00;;;;;;;7.10;4.20;;;;;;;;;;5078318;28;20619;-81
2023/05/30 09:58:27;;;;;;;5.88;4.32;;;;;;;;;;5078147;28;20196;-82
2023/05/30 10:00:57;;;;;;;7.90;5.22;;;;;;;;;;5083404;28;20196;-81
2023/05/30 10:03:43;;;;;;;7.35;3.70;;;;;;;;;;5082438;28;20199;-82
2023/05/30 10:06:14;;;;;;;6.13;3.85;;;;;;;;;;5052183;28;20225;-82
2023/05/30 10:08:45;;;;;;;8.82;4.60;;;;;;;;;;5072049;28;20197;-81
2023/05/30 10:11:14;;;;;;;4.60;3.38;;;;;;;;;;5088410;28;20307;-81
2023/05/30 10:13:42;;;;;;;5.65;4.07;;;;;;;;;;5083516;28;20204;-82
2023/05/30 10:16:13;;;;;;;9.35;4.28;;;;;;;;;;5083682;28;20714;-80
2023/05/30 10:18:44;;;;;;;5.72;3.78;;;;;;;;;;5085932;28;20583;-81
2023/05/30 10:21:13;;;;;;;5.22;3.33;;;;;;;;;;5082915;28;20238;-82
2023/05/30 10:23:42;;;;;;;12.05;4.63;;;;;;;;;;5071301;28;20653;-82
2023/05/30 10:26:13;;;;;;;6.85;3.63;;;;;;;;;;5071666;28;20724;-82
2023/05/30 10:28:42;;;;;;;7.78;3.42;;;;;;;;;;5073742;28;20601;-81
2023/05/30 10:31:10;;;;;;;5.25;4.07;;;;;;;;;;5083350;28;20292;-81
2023/05/30 10:33:39;;;;;;;7.38;4.53;;;;;;;;;;5091575;28;20200;-83
2023/05/30 10:36:08;;;;;;;6.40;3.90;;;;;;;;;;5091372;28;20292;-81
2023/05/30 10:38:44;;;;;;;7.15;4.28;;;;;;;;;;5084811;28;20207;-81
2023/05/30 10:41:20;;;;;;;6.60;3.80;;;;;;;;;;5071790;28;20204;-81
2023/05/30 10:43:56;;;;;;;6.32;3.92;;;;;;;;;;5078812;28;20204;-81
2023/05/30 10:46:42;;;;;;;5.85;3.42;;;;;;;;;;5092677;28;20219;-83
2023/05/30 10:49:14;;;;;;;9.80;3.47;;;;;;;;;;5092022;28;20197;-82
2023/05/30 10:52:02;;;;;;;6.05;3.60;;;;;;;;;;5079343;28;20194;-83
2023/05/30 10:54:32;;;;;;;6.90;4.63;;;;;;;;;;5078778;28;20189;-83
2023/05/30 10:57:02;;;;;;;6.07;3.88;;;;;;;;;;5081354;28;20221;-82
2023/05/30 10:59:29;;;;;;;6.38;4.47;;;;;;;;;;5087147;28;20668;-83
2023/05/30 11:02:02;;;;;;;6.93;3.30;;;;;;;;;;5086061;28;20209;-81
2023/05/30 11:04:32;;;;;;;10.70;4.03;;;;;;;;;;5085177;28;20243;-83
2023/05/30 11:06:59;;;;;;;6.25;2.88;;;;;;;;;;5075799;28;20231;-82
2023/05/30 11:09:28;;;;;;;7.07;4.05;;;;;;;;;;5090917;28;20188;-83
2023/05/30 11:12:01;;;;;;;5.47;3.75;;;;;;;;;;5077103;28;20560;-84
2023/05/30 11:14:31;;;;;;;5.18;3.35;;;;;;;;;;5086200;28;20197;-83
2023/05/30 11:17:02;;;;;;;4.78;3.13;;;;;;;;;;5095529;28;20226;-82
2023/05/30 11:19:36;;;;;;;6.80;3.10;;;;;;;;;;5085986;28;20223;-83
2023/05/30 11:22:10;;;;;;;5.40;3.83;;;;;;;;;;5098067;28;20241;-81
2023/05/30 11:24:37;;;;;;;7.60;4.28;;;;;;;;;;5096388;28;20232;-81
2023/05/30 11:27:14;;;;;;;4.30;3.13;;;;;;;;;;5074821;28;20225;-82
2023/05/30 11:29:48;;;;;;;7.78;4.13;;;;;;;;;;5086452;28;20279;-82
2023/05/30 11:32:19;;;;;;;6.65;3.40;;;;;;;;;;5087085;28;20189;-82
2023/05/30 11:34:48;;;;;;;6.63;3.58;;;;;;;;;;5089471;28;20554;-82
2023/05/30 11:37:17;;;;;;;7.65;3.80;;;;;;;;;;5092026;28;20227;-82
2023/05/30 11:39:44;;;;;;;5.43;4.20;;;;;;;;;;5081890;28;20207;-87
2023/05/30 11:42:13;;;;;;;7.90;4.53;;;;;;;;;;5083410;28;20207;-82
2023/05/30 11:44:43;;;;;;;4.75;2.92;;;;;;;;;;5086155;28;20622;-81
2023/05/30 11:47:11;;;;;;;5.93;3.25;;;;;;;;;;5095270;28;20292;-81
2023/05/30 11:49:39;;;;;;;6.03;3.20;;;;;;;;;;5095286;28;20686;-80
2023/05/30 11:52:07;;;;;;;4.20;3.67;;;;;;;;;;5089425;28;20196;-84
2023/05/30 11:54:35;;;;;;;3.70;2.72;;;;;;;;;;5083050;28;20578;-82
2023/05/30 11:57:04;;;;;;;6.60;3.20;;;;;;;;;;5074835;28;20229;-84
2023/05/30 11:59:33;;;;;;;7.25;3.45;;;;;;;;;;5081462;28;20265;-83
2023/05/30 12:02:01;;;;;;;4.65;3.10;;;;;;;;;;5083877;28;20197;-83
2023/05/30 12:04:31;;;;;;;4.47;2.70;;;;;;;;;;5086242;28;20197;-82
2023/05/30 12:07:00;;;;;;;6.25;3.13;;;;;;;;;;5087657;22;20221;-79
2023/05/30 12:09:27;;;;;;;2.65;2.22;;;;;;;;;;5057961;28;20583;-79
2023/05/30 12:11:57;;;;;;;3.78;2.63;;;;;;;;;;5061293;28;20220;-79
2023/05/30 12:14:39;;;;;;;4.72;2.78;;;;;;;;;;5056913;28;20189;-79
2023/05/30 12:17:11;;;;;;;7.25;3.00;;;;;;;;;;5054664;28;20231;-80
2023/05/30 12:19:39;;;;;;;4.15;2.30;;;;;;;;;;5046736;28;20553;-79
2023/05/30 12:22:07;;;;;;;5.40;3.45;;;;;;;;;;5050517;28;20217;-78
2023/05/30 12:24:37;;;;;;;4.03;2.83;;;;;;;;;;5050368;28;20205;-79
2023/05/30 12:27:06;;;;;;;4.10;2.90;;;;;;;;;;5045811;28;20210;-78
2023/05/30 12:29:36;;;;;;;5.25;3.50;;;;;;;;;;5049840;28;20727;-79
2023/05/30 12:32:04;;;;;;;3.55;2.85;;;;;;;;;;5064183;28;20261;-80
2023/05/30 12:34:39;;;;;;;4.25;3.00;;;;;;;;;;5062555;28;20408;-80
2023/05/30 12:37:11;;;;;;;5.35;2.70;;;;;;;;;;5044050;28;20222;-80
2023/05/30 12:39:47;;;;;;;6.53;2.67;;;;;;;;;;5054055;28;20190;-81
2023/05/30 12:42:20;;;;;;;5.00;2.28;;;;;;;;;;5035776;28;20219;-80
2023/05/30 12:44:52;;;;;;;4.55;2.58;;;;;;;;;;5037082;28;20292;-79
2023/05/30 12:47:19;;;;;;;5.68;2.90;;;;;;;;;;5054355;28;20217;-81
2023/05/30 12:49:47;;;;;;;3.92;3.17;;;;;;;;;;5052801;28;20279;-79
2023/05/30 12:52:20;;;;;;;7.20;4.55;;;;;;;;;;5050302;28;20661;-79
2023/05/30 12:54:49;;;;;;;6.55;3.45;;;;;;;;;;5030405;28;20225;-78
2023/05/30 12:57:19;;;;;;;5.05;2.90;;;;;;;;;;5041199;28;20218;-78
2023/05/30 12:59:46;;;;;;;3.38;2.80;;;;;;;;;;5036562;28;20193;-80
2023/05/30 13:02:15;;;;;;;5.93;3.33;;;;;;;;;;5046491;28;20195;-78
2023/05/30 13:04:43;;;;;;;4.55;2.95;;;;;;;;;;5034081;28;20230;-79
2023/05/30 13:07:12;;;;;;;2.78;2.17;;;;;;;;;;5048659;28;20229;-79
2023/05/30 13:09:40;;;;;;;2.63;2.17;;;;;;;;;;5039672;28;20778;-79
2023/05/30 13:12:09;;;;;;;5.43;3.40;;;;;;;;;;5032783;28;20579;-78
2023/05/30 13:14:37;;;;;;;5.03;2.05;;;;;;;;;;5029236;28;20210;-79
2023/05/30 13:17:05;;;;;;;5.07;2.97;;;;;;;;;;5030918;28;20289;-79
2023/05/30 13:19:35;;;;;;;4.97;2.78;;;;;;;;;;5030582;28;20690;-80
2023/05/30 13:22:03;;;;;;;5.20;3.10;;;;;;;;;;5031264;28;20285;-78
2023/05/30 13:24:31;;;;;;;4.18;2.72;;;;;;;;;;5044400;28;20212;-79
2023/05/30 13:26:58;;;;;;;10.73;3.40;;;;;;;;;;5052754;28;20221;-79
2023/05/30 13:29:26;;;;;;;4.22;3.15;;;;;;;;;;5031645;28;20582;-79
2023/05/30 13:31:54;;;;;;;2.88;2.47;;;;;;;;;;5026395;28;20206;-78
2023/05/30 13:34:21;;;;;;;5.18;2.80;;;;;;;;;;5031413;28;20190;-79
2023/05/30 13:36:50;;;;;;;2.95;2.70;;;;;;;;;;5032590;28;20773;-80
2023/05/30 13:39:18;;;;;;;4.15;2.70;;;;;;;;;;5035174;28;20662;-79
2023/05/30 13:41:45;;;;;;;5.05;2.50;;;;;;;;;;5026367;28;20198;-81
2023/05/30 13:44:13;;;;;;;4.13;2.20;;;;;;;;;;5034354;28;20285;-80
2023/05/30 13:46:40;;;;;;;4.15;2.58;;;;;;;;;;5047133;28;20312;-80
2023/05/30 13:49:08;;;;;;;3.83;2.05;;;;;;;;;;5064938;28;20257;-80
2023/05/30 13:51:36;;;;;;;2.88;2.35;;;;;;;;;;5062981;28;20230;-80
2023/05/30 13:54:06;;;;;;;4.07;2.50;;;;;;;;;;5044942;28;20202;-79
2023/05/30 13:56:33;;;;;;;2.67;2.10;;;;;;;;;;5038382;28;20233;-79
2023/05/30 13:59:01;;;;;;;3.17;2.55;;;;;;;;;;5039668;28;20225;-80
2023/05/30 14:01:30;;;;;;;3.33;2.17;;;;;;;;;;5033970;28;20420;-79
2023/05/30 14:03:58;;;;;;;4.38;2.40;;;;;;;;;;5031680;28;20345;-79
2023/05/30 14:06:26;;;;;;;4.53;2.78;;;;;;;;;;5036044;28;20226;-81
2023/05/30 14:08:54;;;;;;;3.75;2.42;;;;;;;;;;5037186;28;20222;-79
2023/05/30 14:11:23;;;;;;;2.78;2.20;;;;;;;;;;5043549;28;20197;-80
2023/05/30 14:13:50;;;;;;;2.67;2.20;;;;;;;;;;5035363;28;20662;-80
2023/05/30 14:16:18;;;;;;;2.85;2.25;;;;;;;;;;5027254;28;20211;-81
2023/05/30 14:18:46;;;;;;;1.90;1.80;;;;;;;;;;5016211;28;20740;-79
2023/05/30 14:21:14;;;;;;;3.22;1.48;;;;;;;;;;5031704;28;20289;-79
2023/05/30 14:23:42;;;;;;;2.45;2.13;;;;;;;;;;5022754;28;20221;-79
2023/05/30 14:26:10;;;;;;;3.10;2.08;;;;;;;;;;5038356;28;20222;-79
2023/05/30 14:28:40;;;;;;;3.03;2.28;;;;;;;;;;5041187;28;20234;-80
2023/05/30 14:31:09;;;;;;;3.25;1.80;;;;;;;;;;5037199;28;20244;-79
2023/05/30 14:33:36;;;;;;;1.88;1.73;;;;;;;;;;5035227;28;20281;-81
2023/05/30 14:36:04;;;;;;;4.43;2.15;;;;;;;;;;5034022;28;20301;-80
2023/05/30 14:38:32;;;;;;;2.55;1.95;;;;;;;;;;5038883;28;20198;-80
2023/05/30 14:41:00;;;;;;;2.45;1.90;;;;;;;;;;5039403;28;20285;-80
2023/05/30 14:43:28;;;;;;;1.27;1.17;;;;;;;;;;5037013;28;20198;-79
2023/05/30 14:45:56;;;;;;;1.50;1.40;;;;;;;;;;5037195;28;20223;-80
2023/05/30 14:48:24;;;;;;;2.35;1.73;;;;;;;;;;5036895;28;20289;-80
2023/05/30 14:50:51;;;;;;;3.47;2.22;;;;;;;;;;5027807;28;20218;-78